sensor_id;sensor_type;location;lat;lon;timestamp;P1;durP1;ratioP1;P2;durP2;ratioP2
68985;SDS011;56035;37.534;-122.308;2022-11-04T00:01:49;17.15;;;2.05;;
68985;SDS011;56035;37.534;-122.308;2022-11-04T00:04:16;8.77;;;1.73;;
68985;SDS011;56035;37.534;-122.308;2022-11-04T00:06:44;12.00;;;1.60;;
68985;SDS011;56035;37.534;-122.308;2022-11-04T00:09:11;8.85;;;1.42;;
68985;SDS011;56035;37.534;-122.308;2022-11-04T00:11:41;4.67;;;0.97;;
68985;SDS011;56035;37.534;-122.308;2022-11-04T00:14:30;10.40;;;1.00;;
68985;SDS011;56035;37.534;-122.308;2022-11-04T00:16:57;4.70;;;0.60;;
68985;SDS011;56035;37.534;-122.308;2022-11-04T00:19:42;6.90;;;1.00;;
68985;SDS011;56035;37.534;-122.308;2022-11-04T00:22:27;2.77;;;0.77;;
68985;SDS011;56035;37.534;-122.308;2022-11-04T00:25:12;2.33;;;0.40;;
68985;SDS011;56035;37.534;-122.308;2022-11-04T00:28:08;4.00;;;0.77;;
68985;SDS011;56035;37.534;-122.308;2022-11-04T00:30:54;3.80;;;0.53;;
68985;SDS011;56035;37.534;-122.308;2022-11-04T00:33:21;2.57;;;0.53;;
68985;SDS011;56035;37.534;-122.308;2022-11-04T00:35:51;1.40;;;0.50;;
68985;SDS011;56035;37.534;-122.308;2022-11-04T00:38:24;3.40;;;0.40;;
68985;SDS011;56035;37.534;-122.308;2022-11-04T00:40:50;9.50;;;0.97;;
68985;SDS011;56035;37.534;-122.308;2022-11-04T00:43:17;5.38;;;0.90;;
68985;SDS011;56035;37.534;-122.308;2022-11-04T00:45:43;4.05;;;0.93;;
68985;SDS011;56035;37.534;-122.308;2022-11-04T00:48:09;3.30;;;0.88;;
68985;SDS011;56035;37.534;-122.308;2022-11-04T00:50:36;3.78;;;1.15;;
68985;SDS011;56035;37.534;-122.308;2022-11-04T00:53:02;4.05;;;0.60;;
68985;SDS011;56035;37.534;-122.308;2022-11-04T00:55:29;4.43;;;0.80;;
68985;SDS011;56035;37.534;-122.308;2022-11-04T00:57:56;3.60;;;0.60;;
68985;SDS011;56035;37.534;-122.308;2022-11-04T01:00:23;2.80;;;0.50;;
68985;SDS011;56035;37.534;-122.308;2022-11-04T01:02:49;2.58;;;0.70;;
68985;SDS011;56035;37.534;-122.308;2022-11-04T01:05:15;3.65;;;0.70;;
68985;SDS011;56035;37.534;-122.308;2022-11-04T01:07:41;2.47;;;0.60;;
68985;SDS011;56035;37.534;-122.308;2022-11-04T01:10:08;2.78;;;0.57;;
68985;SDS011;56035;37.534;-122.308;2022-11-04T01:12:34;4.90;;;0.93;;
68985;SDS011;56035;37.534;-122.308;2022-11-04T01:15:00;2.13;;;0.50;;
68985;SDS011;56035;37.534;-122.308;2022-11-04T01:17:26;2.63;;;0.60;;
68985;SDS011;56035;37.534;-122.308;2022-11-04T01:19:52;3.73;;;0.60;;
68985;SDS011;56035;37.534;-122.308;2022-11-04T01:22:18;2.67;;;0.70;;
68985;SDS011;56035;37.534;-122.308;2022-11-04T01:24:44;4.10;;;1.03;;
68985;SDS011;56035;37.534;-122.308;2022-11-04T01:27:11;3.25;;;0.73;;
68985;SDS011;56035;37.534;-122.308;2022-11-04T01:29:37;4.93;;;0.80;;
68985;SDS011;56035;37.534;-122.308;2022-11-04T01:32:03;3.40;;;0.70;;
68985;SDS011;56035;37.534;-122.308;2022-11-04T01:34:29;3.55;;;0.80;;
68985;SDS011;56035;37.534;-122.308;2022-11-04T01:36:55;2.88;;;0.68;;
68985;SDS011;56035;37.534;-122.308;2022-11-04T01:39:22;3.78;;;0.80;;
68985;SDS011;56035;37.534;-122.308;2022-11-04T01:41:48;3.63;;;1.33;;
68985;SDS011;56035;37.534;-122.308;2022-11-04T01:50:05;2.60;;;1.10;;
68985;SDS011;56035;37.534;-122.308;2022-11-04T01:55:20;6.97;;;2.00;;
68985;SDS011;56035;37.534;-122.308;2022-11-04T01:57:49;3.47;;;1.13;;
68985;SDS011;56035;37.534;-122.308;2022-11-04T02:00:17;4.17;;;1.40;;
68985;SDS011;56035;37.534;-122.308;2022-11-04T02:05:15;4.97;;;1.20;;
68985;SDS011;56035;37.534;-122.308;2022-11-04T02:07:43;5.57;;;1.20;;
68985;SDS011;56035;37.534;-122.308;2022-11-04T02:10:09;2.78;;;1.00;;
68985;SDS011;56035;37.534;-122.308;2022-11-04T02:12:36;3.87;;;1.10;;
68985;SDS011;56035;37.534;-122.308;2022-11-04T02:15:16;2.57;;;0.70;;
68985;SDS011;56035;37.534;-122.308;2022-11-04T02:20:28;2.30;;;0.97;;
68985;SDS011;56035;37.534;-122.308;2022-11-04T02:23:11;3.30;;;0.97;;
68985;SDS011;56035;37.534;-122.308;2022-11-04T02:45:35;4.17;;;1.03;;
68985;SDS011;56035;37.534;-122.308;2022-11-04T02:53:16;3.83;;;1.10;;
68985;SDS011;56035;37.534;-122.308;2022-11-04T02:55:51;5.97;;;1.60;;
68985;SDS011;56035;37.534;-122.308;2022-11-04T02:58:22;3.97;;;1.20;;
68985;SDS011;56035;37.534;-122.308;2022-11-04T03:00:55;3.67;;;1.30;;
68985;SDS011;56035;37.534;-122.308;2022-11-04T03:03:24;3.20;;;0.90;;
68985;SDS011;56035;37.534;-122.308;2022-11-04T03:05:58;5.77;;;1.13;;
68985;SDS011;56035;37.534;-122.308;2022-11-04T03:08:34;6.30;;;1.50;;
68985;SDS011;56035;37.534;-122.308;2022-11-04T03:11:15;2.93;;;0.90;;
68985;SDS011;56035;37.534;-122.308;2022-11-04T03:16:26;4.03;;;0.83;;
68985;SDS011;56035;37.534;-122.308;2022-11-04T03:21:36;4.80;;;1.00;;
68985;SDS011;56035;37.534;-122.308;2022-11-04T03:24:10;3.87;;;1.07;;
68985;SDS011;56035;37.534;-122.308;2022-11-04T03:26:41;5.80;;;1.15;;
68985;SDS011;56035;37.534;-122.308;2022-11-04T03:29:17;3.55;;;1.10;;
68985;SDS011;56035;37.534;-122.308;2022-11-04T03:32:28;5.73;;;0.93;;
68985;SDS011;56035;37.534;-122.308;2022-11-04T03:34:56;4.97;;;1.50;;
68985;SDS011;56035;37.534;-122.308;2022-11-04T03:37:22;5.50;;;1.30;;
68985;SDS011;56035;37.534;-122.308;2022-11-04T03:39:48;5.33;;;0.80;;
68985;SDS011;56035;37.534;-122.308;2022-11-04T03:42:14;5.23;;;1.27;;
68985;SDS011;56035;37.534;-122.308;2022-11-04T03:44:50;5.20;;;1.23;;
68985;SDS011;56035;37.534;-122.308;2022-11-04T03:47:19;8.70;;;2.37;;
68985;SDS011;56035;37.534;-122.308;2022-11-04T03:49:51;4.50;;;0.97;;
68985;SDS011;56035;37.534;-122.308;2022-11-04T03:52:23;4.57;;;1.00;;
68985;SDS011;56035;37.534;-122.308;2022-11-04T03:54:49;4.63;;;0.73;;
68985;SDS011;56035;37.534;-122.308;2022-11-04T04:08:18;2.47;;;0.70;;
68985;SDS011;56035;37.534;-122.308;2022-11-04T04:10:51;3.27;;;0.70;;
68985;SDS011;56035;37.534;-122.308;2022-11-04T04:13:33;4.37;;;1.20;;
68985;SDS011;56035;37.534;-122.308;2022-11-04T04:16:28;6.17;;;0.87;;
68985;SDS011;56035;37.534;-122.308;2022-11-04T04:19:15;4.90;;;1.10;;
68985;SDS011;56035;37.534;-122.308;2022-11-04T04:21:47;4.20;;;0.85;;
68985;SDS011;56035;37.534;-122.308;2022-11-04T04:24:21;4.83;;;1.40;;
68985;SDS011;56035;37.534;-122.308;2022-11-04T04:27:11;6.03;;;0.90;;
68985;SDS011;56035;37.534;-122.308;2022-11-04T04:29:57;3.23;;;1.00;;
68985;SDS011;56035;37.534;-122.308;2022-11-04T04:32:26;3.63;;;1.13;;
68985;SDS011;56035;37.534;-122.308;2022-11-04T04:34:57;6.13;;;1.40;;
68985;SDS011;56035;37.534;-122.308;2022-11-04T04:37:42;7.27;;;1.00;;
68985;SDS011;56035;37.534;-122.308;2022-11-04T04:40:11;4.80;;;1.10;;
68985;SDS011;56035;37.534;-122.308;2022-11-04T04:43:00;4.17;;;1.10;;
68985;SDS011;56035;37.534;-122.308;2022-11-04T04:45:47;3.93;;;0.87;;
68985;SDS011;56035;37.534;-122.308;2022-11-04T04:48:16;4.97;;;0.90;;
68985;SDS011;56035;37.534;-122.308;2022-11-04T04:50:43;7.75;;;0.93;;
68985;SDS011;56035;37.534;-122.308;2022-11-04T04:53:15;5.70;;;1.10;;
68985;SDS011;56035;37.534;-122.308;2022-11-04T04:55:41;4.80;;;0.90;;
68985;SDS011;56035;37.534;-122.308;2022-11-04T04:58:08;7.13;;;1.00;;
68985;SDS011;56035;37.534;-122.308;2022-11-04T05:00:34;3.45;;;0.80;;
68985;SDS011;56035;37.534;-122.308;2022-11-04T05:03:01;2.40;;;0.77;;
68985;SDS011;56035;37.534;-122.308;2022-11-04T05:05:27;4.57;;;0.93;;
68985;SDS011;56035;37.534;-122.308;2022-11-04T05:07:53;6.07;;;1.23;;
68985;SDS011;56035;37.534;-122.308;2022-11-04T05:10:19;4.40;;;0.90;;
68985;SDS011;56035;37.534;-122.308;2022-11-04T05:12:45;3.60;;;0.67;;
68985;SDS011;56035;37.534;-122.308;2022-11-04T05:15:29;2.20;;;0.57;;
68985;SDS011;56035;37.534;-122.308;2022-11-04T05:17:57;4.35;;;1.13;;
68985;SDS011;56035;37.534;-122.308;2022-11-04T05:20:25;3.10;;;0.63;;
68985;SDS011;56035;37.534;-122.308;2022-11-04T05:22:52;3.22;;;0.60;;
68985;SDS011;56035;37.534;-122.308;2022-11-04T05:25:19;5.17;;;0.80;;
68985;SDS011;56035;37.534;-122.308;2022-11-04T05:27:45;2.70;;;0.82;;
68985;SDS011;56035;37.534;-122.308;2022-11-04T05:30:11;2.67;;;0.70;;
68985;SDS011;56035;37.534;-122.308;2022-11-04T05:32:37;3.53;;;1.05;;
68985;SDS011;56035;37.534;-122.308;2022-11-04T05:35:04;3.90;;;0.73;;
68985;SDS011;56035;37.534;-122.308;2022-11-04T05:37:30;5.47;;;0.93;;
68985;SDS011;56035;37.534;-122.308;2022-11-04T05:39:56;3.97;;;0.57;;
68985;SDS011;56035;37.534;-122.308;2022-11-04T05:42:22;4.85;;;0.85;;
68985;SDS011;56035;37.534;-122.308;2022-11-04T05:44:49;4.23;;;0.70;;
68985;SDS011;56035;37.534;-122.308;2022-11-04T05:47:15;2.27;;;0.80;;
68985;SDS011;56035;37.534;-122.308;2022-11-04T05:49:41;5.13;;;1.10;;
68985;SDS011;56035;37.534;-122.308;2022-11-04T05:52:07;3.85;;;1.08;;
68985;SDS011;56035;37.534;-122.308;2022-11-04T05:54:35;3.55;;;0.80;;
68985;SDS011;56035;37.534;-122.308;2022-11-04T05:57:03;2.97;;;0.60;;
68985;SDS011;56035;37.534;-122.308;2022-11-04T05:59:29;4.03;;;0.90;;
68985;SDS011;56035;37.534;-122.308;2022-11-04T06:01:55;3.85;;;0.70;;
68985;SDS011;56035;37.534;-122.308;2022-11-04T06:04:21;5.00;;;1.02;;
68985;SDS011;56035;37.534;-122.308;2022-11-04T06:06:47;4.20;;;0.50;;
68985;SDS011;56035;37.534;-122.308;2022-11-04T06:09:13;3.90;;;0.80;;
68985;SDS011;56035;37.534;-122.308;2022-11-04T06:11:39;2.58;;;0.88;;
68985;SDS011;56035;37.534;-122.308;2022-11-04T06:14:06;6.68;;;0.95;;
68985;SDS011;56035;37.534;-122.308;2022-11-04T06:16:32;2.42;;;0.77;;
68985;SDS011;56035;37.534;-122.308;2022-11-04T06:18:58;4.28;;;0.95;;
68985;SDS011;56035;37.534;-122.308;2022-11-04T06:21:27;4.27;;;0.70;;
68985;SDS011;56035;37.534;-122.308;2022-11-04T06:23:55;3.10;;;0.70;;
68985;SDS011;56035;37.534;-122.308;2022-11-04T06:26:23;5.93;;;1.00;;
68985;SDS011;56035;37.534;-122.308;2022-11-04T06:28:50;3.13;;;0.60;;
68985;SDS011;56035;37.534;-122.308;2022-11-04T06:31:17;1.97;;;0.47;;
68985;SDS011;56035;37.534;-122.308;2022-11-04T06:36:11;2.50;;;0.53;;
68985;SDS011;56035;37.534;-122.308;2022-11-04T06:38:39;4.20;;;0.87;;
68985;SDS011;56035;37.534;-122.308;2022-11-04T06:41:06;5.85;;;0.80;;
68985;SDS011;56035;37.534;-122.308;2022-11-04T06:43:35;3.37;;;0.60;;
68985;SDS011;56035;37.534;-122.308;2022-11-04T06:46:01;3.83;;;0.60;;
68985;SDS011;56035;37.534;-122.308;2022-11-04T06:48:28;2.08;;;0.63;;
68985;SDS011;56035;37.534;-122.308;2022-11-04T06:50:58;2.40;;;0.50;;
68985;SDS011;56035;37.534;-122.308;2022-11-04T06:53:25;2.93;;;0.77;;
68985;SDS011;56035;37.534;-122.308;2022-11-04T06:58:18;2.30;;;0.67;;
68985;SDS011;56035;37.534;-122.308;2022-11-04T07:00:53;1.80;;;0.50;;
68985;SDS011;56035;37.534;-122.308;2022-11-04T07:03:19;2.30;;;0.73;;
68985;SDS011;56035;37.534;-122.308;2022-11-04T07:05:45;1.98;;;0.40;;
68985;SDS011;56035;37.534;-122.308;2022-11-04T07:08:12;2.58;;;0.52;;
68985;SDS011;56035;37.534;-122.308;2022-11-04T07:10:38;1.60;;;0.50;;
68985;SDS011;56035;37.534;-122.308;2022-11-04T07:13:04;3.50;;;0.80;;
68985;SDS011;56035;37.534;-122.308;2022-11-04T07:15:30;2.38;;;0.40;;
68985;SDS011;56035;37.534;-122.308;2022-11-04T07:20:23;1.87;;;0.50;;
68985;SDS011;56035;37.534;-122.308;2022-11-04T07:22:50;3.97;;;0.57;;
68985;SDS011;56035;37.534;-122.308;2022-11-04T07:25:19;3.73;;;0.57;;
68985;SDS011;56035;37.534;-122.308;2022-11-04T07:27:45;1.65;;;0.43;;
68985;SDS011;56035;37.534;-122.308;2022-11-04T07:30:11;2.80;;;0.63;;
68985;SDS011;56035;37.534;-122.308;2022-11-04T07:32:37;1.25;;;0.40;;
68985;SDS011;56035;37.534;-122.308;2022-11-04T07:35:03;1.37;;;0.50;;
68985;SDS011;56035;37.534;-122.308;2022-11-04T07:37:30;1.50;;;0.45;;
68985;SDS011;56035;37.534;-122.308;2022-11-04T07:39:56;3.33;;;0.93;;
68985;SDS011;56035;37.534;-122.308;2022-11-04T07:42:22;2.40;;;0.50;;
68985;SDS011;56035;37.534;-122.308;2022-11-04T07:44:48;2.67;;;0.70;;
68985;SDS011;56035;37.534;-122.308;2022-11-04T07:47:14;1.80;;;0.40;;
68985;SDS011;56035;37.534;-122.308;2022-11-04T07:49:40;1.10;;;0.40;;
68985;SDS011;56035;37.534;-122.308;2022-11-04T07:52:06;3.43;;;1.17;;
68985;SDS011;56035;37.534;-122.308;2022-11-04T07:54:33;1.23;;;0.30;;
68985;SDS011;56035;37.534;-122.308;2022-11-04T07:56:59;0.80;;;0.40;;
68985;SDS011;56035;37.534;-122.308;2022-11-04T07:59:25;1.13;;;0.40;;
68985;SDS011;56035;37.534;-122.308;2022-11-04T08:01:52;2.00;;;0.63;;
68985;SDS011;56035;37.534;-122.308;2022-11-04T08:04:18;0.90;;;0.30;;
68985;SDS011;56035;37.534;-122.308;2022-11-04T08:06:44;1.48;;;0.52;;
68985;SDS011;56035;37.534;-122.308;2022-11-04T08:09:10;1.17;;;0.20;;
68985;SDS011;56035;37.534;-122.308;2022-11-04T08:11:37;2.30;;;0.60;;
68985;SDS011;56035;37.534;-122.308;2022-11-04T08:14:03;1.40;;;0.40;;
68985;SDS011;56035;37.534;-122.308;2022-11-04T08:16:30;2.20;;;0.68;;
68985;SDS011;56035;37.534;-122.308;2022-11-04T08:18:56;0.98;;;0.40;;
68985;SDS011;56035;37.534;-122.308;2022-11-04T08:21:27;2.07;;;0.60;;
68985;SDS011;56035;37.534;-122.308;2022-11-04T08:23:54;2.13;;;0.60;;
68985;SDS011;56035;37.534;-122.308;2022-11-04T08:26:21;4.57;;;0.40;;
68985;SDS011;56035;37.534;-122.308;2022-11-04T08:33:46;1.50;;;0.30;;
68985;SDS011;56035;37.534;-122.308;2022-11-04T08:36:23;2.15;;;0.35;;
68985;SDS011;56035;37.534;-122.308;2022-11-04T08:38:54;1.20;;;0.33;;
68985;SDS011;56035;37.534;-122.308;2022-11-04T08:41:21;2.13;;;0.40;;
68985;SDS011;56035;37.534;-122.308;2022-11-04T08:43:49;2.87;;;0.77;;
68985;SDS011;56035;37.534;-122.308;2022-11-04T08:46:16;0.47;;;0.30;;
68985;SDS011;56035;37.534;-122.308;2022-11-04T08:48:43;2.47;;;0.50;;
68985;SDS011;56035;37.534;-122.308;2022-11-04T08:51:11;1.80;;;0.40;;
68985;SDS011;56035;37.534;-122.308;2022-11-04T08:53:43;1.03;;;0.53;;
68985;SDS011;56035;37.534;-122.308;2022-11-04T08:56:10;3.13;;;0.50;;
68985;SDS011;56035;37.534;-122.308;2022-11-04T09:01:12;2.07;;;0.33;;
68985;SDS011;56035;37.534;-122.308;2022-11-04T09:03:39;3.30;;;0.50;;
68985;SDS011;56035;37.534;-122.308;2022-11-04T09:06:07;2.50;;;0.50;;
68985;SDS011;56035;37.534;-122.308;2022-11-04T09:08:36;4.17;;;0.70;;
68985;SDS011;56035;37.534;-122.308;2022-11-04T09:11:07;1.13;;;0.40;;
68985;SDS011;56035;37.534;-122.308;2022-11-04T09:13:35;2.63;;;0.50;;
68985;SDS011;56035;37.534;-122.308;2022-11-04T09:16:03;2.37;;;0.50;;
68985;SDS011;56035;37.534;-122.308;2022-11-04T09:18:29;2.60;;;0.50;;
68985;SDS011;56035;37.534;-122.308;2022-11-04T09:20:59;3.60;;;0.70;;
68985;SDS011;56035;37.534;-122.308;2022-11-04T09:23:26;2.00;;;0.50;;
68985;SDS011;56035;37.534;-122.308;2022-11-04T09:25:53;4.05;;;0.55;;
68985;SDS011;56035;37.534;-122.308;2022-11-04T09:28:23;4.00;;;0.80;;
68985;SDS011;56035;37.534;-122.308;2022-11-04T09:30:49;2.22;;;0.63;;
68985;SDS011;56035;37.534;-122.308;2022-11-04T09:33:16;1.48;;;0.40;;
68985;SDS011;56035;37.534;-122.308;2022-11-04T09:35:42;2.22;;;0.60;;
68985;SDS011;56035;37.534;-122.308;2022-11-04T09:38:08;3.83;;;0.93;;
68985;SDS011;56035;37.534;-122.308;2022-11-04T09:40:35;1.92;;;0.50;;
68985;SDS011;56035;37.534;-122.308;2022-11-04T09:45:49;1.67;;;0.60;;
68985;SDS011;56035;37.534;-122.308;2022-11-04T09:48:36;1.83;;;0.52;;
68985;SDS011;56035;37.534;-122.308;2022-11-04T09:51:06;2.40;;;0.40;;
68985;SDS011;56035;37.534;-122.308;2022-11-04T09:56:21;3.55;;;0.50;;
68985;SDS011;56035;37.534;-122.308;2022-11-04T09:58:50;1.87;;;0.50;;
68985;SDS011;56035;37.534;-122.308;2022-11-04T10:06:32;3.10;;;0.57;;
68985;SDS011;56035;37.534;-122.308;2022-11-04T10:17:07;3.00;;;0.60;;
68985;SDS011;56035;37.534;-122.308;2022-11-04T10:22:41;2.87;;;0.57;;
68985;SDS011;56035;37.534;-122.308;2022-11-04T10:25:21;1.87;;;0.50;;
68985;SDS011;56035;37.534;-122.308;2022-11-04T10:27:50;3.53;;;0.60;;
68985;SDS011;56035;37.534;-122.308;2022-11-04T10:37:54;4.27;;;0.70;;
68985;SDS011;56035;37.534;-122.308;2022-11-04T10:40:28;3.67;;;0.83;;
68985;SDS011;56035;37.534;-122.308;2022-11-04T10:43:00;2.92;;;0.85;;
68985;SDS011;56035;37.534;-122.308;2022-11-04T10:45:57;2.63;;;0.60;;
68985;SDS011;56035;37.534;-122.308;2022-11-04T10:48:52;3.10;;;0.90;;
68985;SDS011;56035;37.534;-122.308;2022-11-04T10:51:25;4.80;;;0.70;;
68985;SDS011;56035;37.534;-122.308;2022-11-04T10:53:57;4.70;;;0.98;;
68985;SDS011;56035;37.534;-122.308;2022-11-04T10:56:34;2.77;;;0.67;;
68985;SDS011;56035;37.534;-122.308;2022-11-04T10:59:57;4.80;;;0.70;;
68985;SDS011;56035;37.534;-122.308;2022-11-04T11:02:07;3.27;;;0.90;;
68985;SDS011;56035;37.534;-122.308;2022-11-04T11:07:02;6.53;;;0.77;;
68985;SDS011;56035;37.534;-122.308;2022-11-04T11:09:54;3.67;;;0.90;;
68985;SDS011;56035;37.534;-122.308;2022-11-04T11:12:25;3.90;;;0.90;;
68985;SDS011;56035;37.534;-122.308;2022-11-04T11:14:58;5.47;;;1.00;;
68985;SDS011;56035;37.534;-122.308;2022-11-04T11:20:02;7.60;;;1.03;;
68985;SDS011;56035;37.534;-122.308;2022-11-04T11:22:42;6.03;;;1.00;;
68985;SDS011;56035;37.534;-122.308;2022-11-04T11:25:23;6.20;;;0.93;;
68985;SDS011;56035;37.534;-122.308;2022-11-04T11:28:05;6.27;;;0.93;;
68985;SDS011;56035;37.534;-122.308;2022-11-04T11:35:55;8.60;;;1.10;;
68985;SDS011;56035;37.534;-122.308;2022-11-04T11:38:25;4.63;;;0.97;;
68985;SDS011;56035;37.534;-122.308;2022-11-04T11:41:02;4.07;;;1.07;;
68985;SDS011;56035;37.534;-122.308;2022-11-04T11:43:33;4.20;;;0.80;;
68985;SDS011;56035;37.534;-122.308;2022-11-04T11:46:01;7.60;;;1.03;;
68985;SDS011;56035;37.534;-122.308;2022-11-04T11:48:29;7.05;;;1.13;;
68985;SDS011;56035;37.534;-122.308;2022-11-04T11:56:43;7.07;;;0.93;;
68985;SDS011;56035;37.534;-122.308;2022-11-04T12:02:15;7.77;;;0.90;;
68985;SDS011;56035;37.534;-122.308;2022-11-04T12:05:06;6.47;;;1.20;;
68985;SDS011;56035;37.534;-122.308;2022-11-04T12:15:47;6.15;;;0.88;;
68985;SDS011;56035;37.534;-122.308;2022-11-04T12:21:18;6.73;;;1.20;;
68985;SDS011;56035;37.534;-122.308;2022-11-04T12:31:58;7.27;;;1.37;;
68985;SDS011;56035;37.534;-122.308;2022-11-04T12:34:55;4.30;;;1.08;;
68985;SDS011;56035;37.534;-122.308;2022-11-04T12:40:47;5.93;;;1.27;;
68985;SDS011;56035;37.534;-122.308;2022-11-04T12:49:17;6.70;;;0.80;;
68985;SDS011;56035;37.534;-122.308;2022-11-04T12:54:33;4.90;;;0.90;;
68985;SDS011;56035;37.534;-122.308;2022-11-04T12:57:21;6.83;;;1.00;;
68985;SDS011;56035;37.534;-122.308;2022-11-04T12:59:55;4.25;;;0.88;;
68985;SDS011;56035;37.534;-122.308;2022-11-04T13:05:02;3.87;;;0.90;;
68985;SDS011;56035;37.534;-122.308;2022-11-04T13:10:24;4.20;;;0.57;;
68985;SDS011;56035;37.534;-122.308;2022-11-04T13:12:58;4.27;;;0.93;;
68985;SDS011;56035;37.534;-122.308;2022-11-04T13:15:27;5.03;;;0.93;;
68985;SDS011;56035;37.534;-122.308;2022-11-04T13:17:58;8.27;;;1.20;;
68985;SDS011;56035;37.534;-122.308;2022-11-04T13:21:32;4.97;;;0.90;;
68985;SDS011;56035;37.534;-122.308;2022-11-04T13:23:40;4.65;;;0.70;;
68985;SDS011;56035;37.534;-122.308;2022-11-04T13:26:16;4.10;;;0.77;;
68985;SDS011;56035;37.534;-122.308;2022-11-04T13:31:21;4.83;;;0.87;;
68985;SDS011;56035;37.534;-122.308;2022-11-04T13:34:02;4.13;;;0.80;;
68985;SDS011;56035;37.534;-122.308;2022-11-04T13:39:43;2.53;;;0.70;;
68985;SDS011;56035;37.534;-122.308;2022-11-04T13:42:25;5.93;;;0.90;;
68985;SDS011;56035;37.534;-122.308;2022-11-04T13:45:14;4.60;;;0.90;;
68985;SDS011;56035;37.534;-122.308;2022-11-04T13:50:38;1.73;;;0.63;;
68985;SDS011;56035;37.534;-122.308;2022-11-04T13:53:05;4.30;;;0.83;;
68985;SDS011;56035;37.534;-122.308;2022-11-04T13:55:35;3.63;;;0.90;;
68985;SDS011;56035;37.534;-122.308;2022-11-04T13:58:16;2.07;;;0.50;;
68985;SDS011;56035;37.534;-122.308;2022-11-04T14:01:07;4.33;;;0.90;;
68985;SDS011;56035;37.534;-122.308;2022-11-04T14:03:38;2.30;;;0.70;;
68985;SDS011;56035;37.534;-122.308;2022-11-04T14:06:16;4.40;;;1.00;;
68985;SDS011;56035;37.534;-122.308;2022-11-04T14:12:45;4.67;;;1.30;;
68985;SDS011;56035;37.534;-122.308;2022-11-04T14:19:59;4.70;;;1.10;;
68985;SDS011;56035;37.534;-122.308;2022-11-04T14:25:21;6.33;;;1.20;;
68985;SDS011;56035;37.534;-122.308;2022-11-04T14:27:55;6.00;;;1.40;;
68985;SDS011;56035;37.534;-122.308;2022-11-04T14:33:05;5.10;;;1.13;;
68985;SDS011;56035;37.534;-122.308;2022-11-04T14:35:41;4.57;;;1.17;;
68985;SDS011;56035;37.534;-122.308;2022-11-04T14:43:47;6.43;;;1.20;;
68985;SDS011;56035;37.534;-122.308;2022-11-04T14:46:21;4.80;;;1.20;;
68985;SDS011;56035;37.534;-122.308;2022-11-04T14:48:51;8.57;;;1.47;;
68985;SDS011;56035;37.534;-122.308;2022-11-04T14:53:49;8.43;;;1.80;;
68985;SDS011;56035;37.534;-122.308;2022-11-04T14:56:19;5.73;;;1.73;;
68985;SDS011;56035;37.534;-122.308;2022-11-04T14:58:53;5.03;;;1.47;;
68985;SDS011;56035;37.534;-122.308;2022-11-04T15:01:42;4.80;;;1.13;;
68985;SDS011;56035;37.534;-122.308;2022-11-04T15:06:55;5.07;;;1.20;;
68985;SDS011;56035;37.534;-122.308;2022-11-04T15:09:23;5.53;;;1.30;;
68985;SDS011;56035;37.534;-122.308;2022-11-04T15:15:25;5.00;;;1.10;;
68985;SDS011;56035;37.534;-122.308;2022-11-04T15:17:52;5.00;;;1.20;;
68985;SDS011;56035;37.534;-122.308;2022-11-04T15:20:24;5.13;;;1.43;;
68985;SDS011;56035;37.534;-122.308;2022-11-04T15:22:54;6.83;;;1.37;;
68985;SDS011;56035;37.534;-122.308;2022-11-04T15:25:23;3.87;;;1.20;;
68985;SDS011;56035;37.534;-122.308;2022-11-04T15:27:49;4.72;;;1.50;;
68985;SDS011;56035;37.534;-122.308;2022-11-04T15:32:53;3.87;;;1.40;;
68985;SDS011;56035;37.534;-122.308;2022-11-04T15:35:20;7.40;;;2.40;;
68985;SDS011;56035;37.534;-122.308;2022-11-04T15:37:47;4.68;;;1.50;;
68985;SDS011;56035;37.534;-122.308;2022-11-04T15:40:16;6.00;;;2.07;;
68985;SDS011;56035;37.534;-122.308;2022-11-04T15:42:42;5.55;;;1.52;;
68985;SDS011;56035;37.534;-122.308;2022-11-04T15:45:24;5.93;;;1.60;;
68985;SDS011;56035;37.534;-122.308;2022-11-04T15:53:53;5.23;;;1.40;;
68985;SDS011;56035;37.534;-122.308;2022-11-04T15:56:26;3.35;;;1.40;;
68985;SDS011;56035;37.534;-122.308;2022-11-04T15:58:53;9.13;;;1.63;;
68985;SDS011;56035;37.534;-122.308;2022-11-04T16:01:22;7.13;;;1.50;;
68985;SDS011;56035;37.534;-122.308;2022-11-04T16:03:52;9.10;;;2.17;;
68985;SDS011;56035;37.534;-122.308;2022-11-04T16:06:33;5.17;;;1.60;;
68985;SDS011;56035;37.534;-122.308;2022-11-04T16:09:05;8.13;;;1.73;;
68985;SDS011;56035;37.534;-122.308;2022-11-04T16:11:37;6.03;;;1.70;;
68985;SDS011;56035;37.534;-122.308;2022-11-04T16:16:47;5.93;;;1.43;;
68985;SDS011;56035;37.534;-122.308;2022-11-04T16:19:16;5.27;;;1.60;;
68985;SDS011;56035;37.534;-122.308;2022-11-04T16:22:06;5.00;;;1.53;;
68985;SDS011;56035;37.534;-122.308;2022-11-04T16:24:35;6.80;;;1.70;;
68985;SDS011;56035;37.534;-122.308;2022-11-04T16:27:07;4.90;;;1.70;;
68985;SDS011;56035;37.534;-122.308;2022-11-04T16:29:36;6.47;;;1.83;;
68985;SDS011;56035;37.534;-122.308;2022-11-04T16:32:06;5.33;;;1.80;;
68985;SDS011;56035;37.534;-122.308;2022-11-04T16:34:41;6.53;;;1.80;;
68985;SDS011;56035;37.534;-122.308;2022-11-04T16:37:08;5.63;;;2.03;;
68985;SDS011;56035;37.534;-122.308;2022-11-04T16:39:34;12.15;;;2.33;;
68985;SDS011;56035;37.534;-122.308;2022-11-04T16:42:00;6.07;;;2.03;;
68985;SDS011;56035;37.534;-122.308;2022-11-04T16:44:26;5.40;;;2.10;;
68985;SDS011;56035;37.534;-122.308;2022-11-04T16:46:53;7.35;;;1.92;;
68985;SDS011;56035;37.534;-122.308;2022-11-04T16:49:21;8.27;;;1.70;;
68985;SDS011;56035;37.534;-122.308;2022-11-04T16:51:49;8.98;;;2.45;;
68985;SDS011;56035;37.534;-122.308;2022-11-04T16:54:19;4.00;;;1.60;;
68985;SDS011;56035;37.534;-122.308;2022-11-04T16:56:46;8.10;;;1.63;;
68985;SDS011;56035;37.534;-122.308;2022-11-04T17:01:39;5.57;;;1.60;;
68985;SDS011;56035;37.534;-122.308;2022-11-04T17:04:06;7.63;;;2.42;;
68985;SDS011;56035;37.534;-122.308;2022-11-04T17:06:32;6.30;;;2.05;;
68985;SDS011;56035;37.534;-122.308;2022-11-04T17:08:59;4.60;;;1.50;;
68985;SDS011;56035;37.534;-122.308;2022-11-04T17:11:26;6.50;;;1.80;;
68985;SDS011;56035;37.534;-122.308;2022-11-04T17:13:54;9.23;;;2.40;;
68985;SDS011;56035;37.534;-122.308;2022-11-04T17:16:21;5.75;;;1.60;;
68985;SDS011;56035;37.534;-122.308;2022-11-04T17:18:47;6.57;;;2.35;;
68985;SDS011;56035;37.534;-122.308;2022-11-04T17:21:13;5.85;;;1.38;;
68985;SDS011;56035;37.534;-122.308;2022-11-04T17:23:42;3.97;;;1.17;;
68985;SDS011;56035;37.534;-122.308;2022-11-04T17:26:10;6.07;;;1.63;;
68985;SDS011;56035;37.534;-122.308;2022-11-04T17:28:37;5.00;;;1.70;;
68985;SDS011;56035;37.534;-122.308;2022-11-04T17:31:03;12.27;;;2.30;;
68985;SDS011;56035;37.534;-122.308;2022-11-04T17:33:30;5.80;;;1.75;;
68985;SDS011;56035;37.534;-122.308;2022-11-04T17:35:56;4.78;;;1.85;;
68985;SDS011;56035;37.534;-122.308;2022-11-04T17:38:22;7.65;;;2.20;;
68985;SDS011;56035;37.534;-122.308;2022-11-04T17:40:48;6.72;;;1.40;;
68985;SDS011;56035;37.534;-122.308;2022-11-04T17:43:32;9.27;;;2.57;;
68985;SDS011;56035;37.534;-122.308;2022-11-04T17:46:17;7.87;;;1.87;;
68985;SDS011;56035;37.534;-122.308;2022-11-04T17:48:58;6.97;;;2.37;;
68985;SDS011;56035;37.534;-122.308;2022-11-04T17:51:25;7.70;;;1.70;;
68985;SDS011;56035;37.534;-122.308;2022-11-04T17:53:51;8.52;;;1.60;;
68985;SDS011;56035;37.534;-122.308;2022-11-04T17:56:19;5.60;;;2.00;;